TAF KBIL
KBIL 280526Z 2806/2906 22010KT P6SM FEW200 FM281400 25018G30KT P6SM BKN200=
METAR KBIL
WC KBIL
WS KBIL
WV KBIL